sensor_id;sensor_type;location;lat;lon;timestamp;P1;durP1;ratioP1;P2;durP2;ratioP2
1082;SDS011;530;51.448;7.238;2023-09-18T00:02:25;10.20;;;5.90;;
1082;SDS011;530;51.448;7.238;2023-09-18T00:04:51;10.80;;;6.60;;
1082;SDS011;530;51.448;7.238;2023-09-18T00:07:17;10.90;;;6.37;;
1082;SDS011;530;51.448;7.238;2023-09-18T00:09:43;6.87;;;5.30;;
1082;SDS011;530;51.448;7.238;2023-09-18T00:12:09;7.23;;;6.53;;
1082;SDS011;530;51.448;7.238;2023-09-18T00:14:35;9.40;;;5.87;;
1082;SDS011;530;51.448;7.238;2023-09-18T00:17:02;7.30;;;6.03;;
1082;SDS011;530;51.448;7.238;2023-09-18T00:19:28;7.50;;;6.00;;
1082;SDS011;530;51.448;7.238;2023-09-18T00:21:54;6.67;;;5.20;;
1082;SDS011;530;51.448;7.238;2023-09-18T00:24:19;6.77;;;6.00;;
1082;SDS011;530;51.448;7.238;2023-09-18T00:26:46;6.97;;;5.80;;
1082;SDS011;530;51.448;7.238;2023-09-18T00:29:13;10.93;;;5.40;;
1082;SDS011;530;51.448;7.238;2023-09-18T00:31:39;7.30;;;6.20;;
1082;SDS011;530;51.448;7.238;2023-09-18T00:34:04;6.37;;;5.77;;
1082;SDS011;530;51.448;7.238;2023-09-18T00:36:30;6.97;;;5.80;;
1082;SDS011;530;51.448;7.238;2023-09-18T00:38:56;7.63;;;5.87;;
1082;SDS011;530;51.448;7.238;2023-09-18T00:41:21;6.53;;;5.90;;
1082;SDS011;530;51.448;7.238;2023-09-18T00:43:47;6.83;;;5.20;;
1082;SDS011;530;51.448;7.238;2023-09-18T00:46:12;7.43;;;6.57;;
1082;SDS011;530;51.448;7.238;2023-09-18T00:48:39;6.00;;;5.40;;
1082;SDS011;530;51.448;7.238;2023-09-18T00:51:05;8.67;;;5.67;;
1082;SDS011;530;51.448;7.238;2023-09-18T00:53:31;7.10;;;5.77;;
1082;SDS011;530;51.448;7.238;2023-09-18T00:55:57;7.83;;;5.70;;
1082;SDS011;530;51.448;7.238;2023-09-18T00:58:25;9.03;;;6.30;;
1082;SDS011;530;51.448;7.238;2023-09-18T01:00:52;6.10;;;5.53;;
1082;SDS011;530;51.448;7.238;2023-09-18T01:03:19;8.30;;;5.93;;
1082;SDS011;530;51.448;7.238;2023-09-18T01:05:46;6.47;;;5.33;;
1082;SDS011;530;51.448;7.238;2023-09-18T01:08:12;6.83;;;5.77;;
1082;SDS011;530;51.448;7.238;2023-09-18T01:10:56;7.40;;;5.30;;
1082;SDS011;530;51.448;7.238;2023-09-18T01:13:30;5.93;;;5.37;;
1082;SDS011;530;51.448;7.238;2023-09-18T01:16:10;8.53;;;6.70;;
1082;SDS011;530;51.448;7.238;2023-09-18T01:18:48;5.70;;;5.20;;
1082;SDS011;530;51.448;7.238;2023-09-18T01:21:15;7.40;;;5.97;;
1082;SDS011;530;51.448;7.238;2023-09-18T01:23:43;5.90;;;5.40;;
1082;SDS011;530;51.448;7.238;2023-09-18T01:26:09;7.90;;;5.70;;
1082;SDS011;530;51.448;7.238;2023-09-18T01:28:34;8.40;;;6.00;;
1082;SDS011;530;51.448;7.238;2023-09-18T01:31:00;8.83;;;5.40;;
1082;SDS011;530;51.448;7.238;2023-09-18T01:33:26;8.47;;;5.33;;
1082;SDS011;530;51.448;7.238;2023-09-18T01:35:53;6.77;;;5.87;;
1082;SDS011;530;51.448;7.238;2023-09-18T01:38:21;6.90;;;5.90;;
1082;SDS011;530;51.448;7.238;2023-09-18T01:40:49;7.90;;;6.20;;
1082;SDS011;530;51.448;7.238;2023-09-18T01:43:16;7.07;;;6.20;;
1082;SDS011;530;51.448;7.238;2023-09-18T01:45:42;8.90;;;6.10;;
1082;SDS011;530;51.448;7.238;2023-09-18T01:48:08;7.37;;;5.60;;
1082;SDS011;530;51.448;7.238;2023-09-18T01:50:34;7.93;;;5.47;;
1082;SDS011;530;51.448;7.238;2023-09-18T01:53:02;9.23;;;5.00;;
1082;SDS011;530;51.448;7.238;2023-09-18T01:55:28;8.17;;;6.03;;
1082;SDS011;530;51.448;7.238;2023-09-18T01:57:55;8.80;;;5.97;;
1082;SDS011;530;51.448;7.238;2023-09-18T02:00:21;6.73;;;5.47;;
1082;SDS011;530;51.448;7.238;2023-09-18T02:02:46;9.60;;;5.40;;
1082;SDS011;530;51.448;7.238;2023-09-18T02:05:12;7.47;;;4.90;;
1082;SDS011;530;51.448;7.238;2023-09-18T02:07:38;6.77;;;5.37;;
1082;SDS011;530;51.448;7.238;2023-09-18T02:10:04;8.67;;;5.70;;
1082;SDS011;530;51.448;7.238;2023-09-18T02:12:30;8.60;;;6.50;;
1082;SDS011;530;51.448;7.238;2023-09-18T02:14:56;10.33;;;5.57;;
1082;SDS011;530;51.448;7.238;2023-09-18T02:17:29;9.50;;;6.37;;
1082;SDS011;530;51.448;7.238;2023-09-18T02:19:55;5.47;;;4.90;;
1082;SDS011;530;51.448;7.238;2023-09-18T02:22:21;10.17;;;5.90;;
1082;SDS011;530;51.448;7.238;2023-09-18T02:24:47;8.57;;;5.60;;
1082;SDS011;530;51.448;7.238;2023-09-18T02:27:12;6.20;;;5.03;;
1082;SDS011;530;51.448;7.238;2023-09-18T02:29:38;8.27;;;6.33;;
1082;SDS011;530;51.448;7.238;2023-09-18T02:32:04;7.40;;;5.07;;
1082;SDS011;530;51.448;7.238;2023-09-18T02:34:29;9.13;;;5.27;;
1082;SDS011;530;51.448;7.238;2023-09-18T02:36:55;7.50;;;5.60;;
1082;SDS011;530;51.448;7.238;2023-09-18T02:39:21;9.07;;;6.27;;
1082;SDS011;530;51.448;7.238;2023-09-18T02:41:47;5.20;;;4.57;;
1082;SDS011;530;51.448;7.238;2023-09-18T02:44:12;6.50;;;4.20;;
1082;SDS011;530;51.448;7.238;2023-09-18T02:46:38;8.63;;;4.60;;
1082;SDS011;530;51.448;7.238;2023-09-18T02:49:04;8.30;;;4.77;;
1082;SDS011;530;51.448;7.238;2023-09-18T02:51:30;5.37;;;4.87;;
1082;SDS011;530;51.448;7.238;2023-09-18T02:53:57;10.40;;;4.77;;
1082;SDS011;530;51.448;7.238;2023-09-18T02:56:22;5.70;;;4.87;;
1082;SDS011;530;51.448;7.238;2023-09-18T02:58:48;6.37;;;5.00;;
1082;SDS011;530;51.448;7.238;2023-09-18T03:01:14;5.97;;;4.30;;
1082;SDS011;530;51.448;7.238;2023-09-18T03:03:40;6.93;;;5.13;;
1082;SDS011;530;51.448;7.238;2023-09-18T03:06:06;5.20;;;4.30;;
1082;SDS011;530;51.448;7.238;2023-09-18T03:08:32;7.20;;;4.53;;
1082;SDS011;530;51.448;7.238;2023-09-18T03:10:59;5.10;;;4.57;;
1082;SDS011;530;51.448;7.238;2023-09-18T03:13:26;5.20;;;4.40;;
1082;SDS011;530;51.448;7.238;2023-09-18T03:15:53;5.53;;;4.23;;
1082;SDS011;530;51.448;7.238;2023-09-18T03:18:19;4.90;;;3.87;;
1082;SDS011;530;51.448;7.238;2023-09-18T03:20:44;5.53;;;4.43;;
1082;SDS011;530;51.448;7.238;2023-09-18T03:23:10;4.30;;;3.90;;
1082;SDS011;530;51.448;7.238;2023-09-18T03:25:36;6.70;;;4.13;;
1082;SDS011;530;51.448;7.238;2023-09-18T03:28:02;4.33;;;3.93;;
1082;SDS011;530;51.448;7.238;2023-09-18T03:30:28;6.57;;;4.50;;
1082;SDS011;530;51.448;7.238;2023-09-18T03:32:54;6.77;;;4.50;;
1082;SDS011;530;51.448;7.238;2023-09-18T03:35:20;10.90;;;4.97;;
1082;SDS011;530;51.448;7.238;2023-09-18T03:37:47;5.00;;;4.10;;
1082;SDS011;530;51.448;7.238;2023-09-18T03:40:13;5.80;;;4.53;;
1082;SDS011;530;51.448;7.238;2023-09-18T03:42:39;6.57;;;4.17;;
1082;SDS011;530;51.448;7.238;2023-09-18T03:45:06;5.33;;;4.00;;
1082;SDS011;530;51.448;7.238;2023-09-18T03:47:36;6.00;;;4.63;;
1082;SDS011;530;51.448;7.238;2023-09-18T03:50:04;11.30;;;4.73;;
1082;SDS011;530;51.448;7.238;2023-09-18T03:52:31;7.93;;;4.97;;
1082;SDS011;530;51.448;7.238;2023-09-18T03:54:56;7.50;;;4.90;;
1082;SDS011;530;51.448;7.238;2023-09-18T03:57:22;6.13;;;4.20;;
1082;SDS011;530;51.448;7.238;2023-09-18T03:59:48;12.33;;;4.37;;
1082;SDS011;530;51.448;7.238;2023-09-18T04:02:14;5.60;;;4.30;;
1082;SDS011;530;51.448;7.238;2023-09-18T04:04:39;6.67;;;4.57;;
1082;SDS011;530;51.448;7.238;2023-09-18T04:07:06;6.20;;;4.43;;
1082;SDS011;530;51.448;7.238;2023-09-18T04:09:32;5.23;;;4.60;;
1082;SDS011;530;51.448;7.238;2023-09-18T04:11:59;8.13;;;4.43;;
1082;SDS011;530;51.448;7.238;2023-09-18T04:14:30;5.10;;;4.60;;
1082;SDS011;530;51.448;7.238;2023-09-18T04:16:56;7.17;;;4.33;;
1082;SDS011;530;51.448;7.238;2023-09-18T04:19:22;8.50;;;4.70;;
1082;SDS011;530;51.448;7.238;2023-09-18T04:21:48;4.90;;;4.40;;
1082;SDS011;530;51.448;7.238;2023-09-18T04:24:13;5.63;;;4.30;;
1082;SDS011;530;51.448;7.238;2023-09-18T04:26:39;8.70;;;5.10;;
1082;SDS011;530;51.448;7.238;2023-09-18T04:29:05;7.77;;;4.10;;
1082;SDS011;530;51.448;7.238;2023-09-18T04:31:31;8.87;;;4.73;;
1082;SDS011;530;51.448;7.238;2023-09-18T04:33:57;7.60;;;4.37;;
1082;SDS011;530;51.448;7.238;2023-09-18T04:36:22;8.20;;;4.73;;
1082;SDS011;530;51.448;7.238;2023-09-18T04:38:49;7.03;;;4.77;;
1082;SDS011;530;51.448;7.238;2023-09-18T04:41:16;7.40;;;4.40;;
1082;SDS011;530;51.448;7.238;2023-09-18T04:43:41;11.80;;;5.20;;
1082;SDS011;530;51.448;7.238;2023-09-18T04:46:10;7.83;;;5.00;;
1082;SDS011;530;51.448;7.238;2023-09-18T04:48:36;10.63;;;4.20;;
1082;SDS011;530;51.448;7.238;2023-09-18T04:51:02;9.53;;;5.07;;
1082;SDS011;530;51.448;7.238;2023-09-18T04:53:31;10.30;;;4.50;;
1082;SDS011;530;51.448;7.238;2023-09-18T04:55:57;9.80;;;4.47;;
1082;SDS011;530;51.448;7.238;2023-09-18T04:58:23;9.20;;;4.27;;
1082;SDS011;530;51.448;7.238;2023-09-18T05:00:56;6.27;;;4.60;;
1082;SDS011;530;51.448;7.238;2023-09-18T05:03:23;8.00;;;3.93;;
1082;SDS011;530;51.448;7.238;2023-09-18T05:05:49;9.03;;;4.20;;
1082;SDS011;530;51.448;7.238;2023-09-18T05:08:14;5.43;;;4.00;;
1082;SDS011;530;51.448;7.238;2023-09-18T05:10:41;9.13;;;4.00;;
1082;SDS011;530;51.448;7.238;2023-09-18T05:13:07;9.10;;;4.90;;
1082;SDS011;530;51.448;7.238;2023-09-18T05:15:33;6.93;;;4.00;;
1082;SDS011;530;51.448;7.238;2023-09-18T05:17:59;7.40;;;4.10;;
1082;SDS011;530;51.448;7.238;2023-09-18T05:20:25;12.23;;;4.20;;
1082;SDS011;530;51.448;7.238;2023-09-18T05:22:53;7.63;;;4.23;;
1082;SDS011;530;51.448;7.238;2023-09-18T05:25:23;12.60;;;5.60;;
1082;SDS011;530;51.448;7.238;2023-09-18T05:27:51;11.67;;;4.43;;
1082;SDS011;530;51.448;7.238;2023-09-18T05:30:24;12.07;;;4.57;;
1082;SDS011;530;51.448;7.238;2023-09-18T05:32:53;9.90;;;4.03;;
1082;SDS011;530;51.448;7.238;2023-09-18T05:35:19;6.57;;;4.50;;
1082;SDS011;530;51.448;7.238;2023-09-18T05:37:46;9.77;;;4.83;;
1082;SDS011;530;51.448;7.238;2023-09-18T05:40:13;7.97;;;5.00;;
1082;SDS011;530;51.448;7.238;2023-09-18T05:42:40;7.67;;;4.23;;
1082;SDS011;530;51.448;7.238;2023-09-18T05:45:11;9.80;;;4.17;;
1082;SDS011;530;51.448;7.238;2023-09-18T05:47:40;10.07;;;3.90;;
1082;SDS011;530;51.448;7.238;2023-09-18T05:50:08;5.70;;;4.03;;
1082;SDS011;530;51.448;7.238;2023-09-18T05:52:35;7.60;;;4.03;;
1082;SDS011;530;51.448;7.238;2023-09-18T05:55:04;7.87;;;3.87;;
1082;SDS011;530;51.448;7.238;2023-09-18T05:57:32;7.00;;;3.63;;
1082;SDS011;530;51.448;7.238;2023-09-18T05:59:57;9.20;;;4.20;;
1082;SDS011;530;51.448;7.238;2023-09-18T06:02:23;7.10;;;3.80;;
1082;SDS011;530;51.448;7.238;2023-09-18T06:04:55;7.50;;;3.50;;
1082;SDS011;530;51.448;7.238;2023-09-18T06:07:23;8.33;;;4.07;;
1082;SDS011;530;51.448;7.238;2023-09-18T06:09:49;10.10;;;3.77;;
1082;SDS011;530;51.448;7.238;2023-09-18T06:12:15;15.90;;;4.20;;
1082;SDS011;530;51.448;7.238;2023-09-18T06:14:41;8.63;;;4.13;;
1082;SDS011;530;51.448;7.238;2023-09-18T06:17:07;9.70;;;4.87;;
1082;SDS011;530;51.448;7.238;2023-09-18T06:19:34;5.83;;;4.03;;
1082;SDS011;530;51.448;7.238;2023-09-18T06:22:00;6.90;;;3.80;;
1082;SDS011;530;51.448;7.238;2023-09-18T06:24:26;9.00;;;4.13;;
1082;SDS011;530;51.448;7.238;2023-09-18T06:26:52;10.87;;;3.77;;
1082;SDS011;530;51.448;7.238;2023-09-18T06:29:18;5.33;;;3.33;;
1082;SDS011;530;51.448;7.238;2023-09-18T06:31:44;8.87;;;3.80;;
1082;SDS011;530;51.448;7.238;2023-09-18T06:34:10;10.40;;;4.00;;
1082;SDS011;530;51.448;7.238;2023-09-18T06:36:36;6.37;;;3.50;;
1082;SDS011;530;51.448;7.238;2023-09-18T06:39:02;4.80;;;3.10;;
1082;SDS011;530;51.448;7.238;2023-09-18T06:41:28;7.47;;;3.40;;
1082;SDS011;530;51.448;7.238;2023-09-18T06:43:54;4.40;;;3.20;;
1082;SDS011;530;51.448;7.238;2023-09-18T06:46:20;5.77;;;3.27;;
1082;SDS011;530;51.448;7.238;2023-09-18T06:48:45;6.90;;;3.60;;
1082;SDS011;530;51.448;7.238;2023-09-18T06:51:14;6.87;;;3.80;;
1082;SDS011;530;51.448;7.238;2023-09-18T06:53:40;10.03;;;3.47;;
1082;SDS011;530;51.448;7.238;2023-09-18T06:56:06;6.37;;;3.27;;
1082;SDS011;530;51.448;7.238;2023-09-18T06:58:34;5.63;;;3.00;;
1082;SDS011;530;51.448;7.238;2023-09-18T07:01:00;5.90;;;3.13;;
1082;SDS011;530;51.448;7.238;2023-09-18T07:03:25;4.03;;;2.80;;
1082;SDS011;530;51.448;7.238;2023-09-18T07:05:51;5.87;;;3.70;;
1082;SDS011;530;51.448;7.238;2023-09-18T07:08:17;6.67;;;3.10;;
1082;SDS011;530;51.448;7.238;2023-09-18T07:10:48;5.30;;;3.10;;
1082;SDS011;530;51.448;7.238;2023-09-18T07:13:15;5.43;;;3.27;;
1082;SDS011;530;51.448;7.238;2023-09-18T07:15:41;4.17;;;3.17;;
1082;SDS011;530;51.448;7.238;2023-09-18T07:18:06;9.80;;;3.20;;
1082;SDS011;530;51.448;7.238;2023-09-18T07:20:32;7.43;;;3.43;;
1082;SDS011;530;51.448;7.238;2023-09-18T07:22:58;4.70;;;2.93;;
1082;SDS011;530;51.448;7.238;2023-09-18T07:25:24;4.53;;;2.40;;
1082;SDS011;530;51.448;7.238;2023-09-18T07:27:49;4.90;;;3.33;;
1082;SDS011;530;51.448;7.238;2023-09-18T07:30:15;3.90;;;2.47;;
1082;SDS011;530;51.448;7.238;2023-09-18T07:32:42;4.27;;;2.50;;
1082;SDS011;530;51.448;7.238;2023-09-18T07:35:08;5.30;;;2.43;;
1082;SDS011;530;51.448;7.238;2023-09-18T07:37:35;4.83;;;2.73;;
1082;SDS011;530;51.448;7.238;2023-09-18T07:40:02;6.50;;;2.43;;
1082;SDS011;530;51.448;7.238;2023-09-18T07:42:29;3.80;;;2.60;;
1082;SDS011;530;51.448;7.238;2023-09-18T07:44:54;3.83;;;2.10;;
1082;SDS011;530;51.448;7.238;2023-09-18T07:47:20;4.97;;;2.37;;
1082;SDS011;530;51.448;7.238;2023-09-18T07:49:46;2.97;;;1.90;;
1082;SDS011;530;51.448;7.238;2023-09-18T07:52:12;4.23;;;2.47;;
1082;SDS011;530;51.448;7.238;2023-09-18T07:54:38;5.37;;;2.20;;
1082;SDS011;530;51.448;7.238;2023-09-18T07:57:03;4.50;;;2.37;;
1082;SDS011;530;51.448;7.238;2023-09-18T07:59:29;4.60;;;2.37;;
1082;SDS011;530;51.448;7.238;2023-09-18T08:01:55;5.70;;;2.30;;
1082;SDS011;530;51.448;7.238;2023-09-18T08:04:21;6.43;;;2.23;;
1082;SDS011;530;51.448;7.238;2023-09-18T08:06:47;5.90;;;2.70;;
1082;SDS011;530;51.448;7.238;2023-09-18T08:09:12;3.37;;;2.20;;
1082;SDS011;530;51.448;7.238;2023-09-18T08:11:41;3.87;;;2.00;;
1082;SDS011;530;51.448;7.238;2023-09-18T08:14:08;6.03;;;2.63;;
1082;SDS011;530;51.448;7.238;2023-09-18T08:16:39;3.23;;;2.40;;
1082;SDS011;530;51.448;7.238;2023-09-18T08:19:05;3.40;;;2.20;;
1082;SDS011;530;51.448;7.238;2023-09-18T08:21:32;2.90;;;1.80;;
1082;SDS011;530;51.448;7.238;2023-09-18T08:23:57;3.30;;;2.50;;
1082;SDS011;530;51.448;7.238;2023-09-18T08:26:24;3.40;;;2.20;;
1082;SDS011;530;51.448;7.238;2023-09-18T08:28:50;3.10;;;2.20;;
1082;SDS011;530;51.448;7.238;2023-09-18T08:31:16;3.80;;;2.30;;
1082;SDS011;530;51.448;7.238;2023-09-18T08:33:42;8.10;;;2.47;;
1082;SDS011;530;51.448;7.238;2023-09-18T08:36:08;3.90;;;2.13;;
1082;SDS011;530;51.448;7.238;2023-09-18T08:38:34;4.43;;;2.40;;
1082;SDS011;530;51.448;7.238;2023-09-18T08:41:00;3.50;;;2.20;;
1082;SDS011;530;51.448;7.238;2023-09-18T08:43:26;3.70;;;2.37;;
1082;SDS011;530;51.448;7.238;2023-09-18T08:45:54;5.90;;;2.40;;
1082;SDS011;530;51.448;7.238;2023-09-18T08:48:26;3.60;;;1.90;;
1082;SDS011;530;51.448;7.238;2023-09-18T08:50:59;5.10;;;2.43;;
1082;SDS011;530;51.448;7.238;2023-09-18T08:53:28;6.70;;;2.30;;
1082;SDS011;530;51.448;7.238;2023-09-18T08:55:55;4.73;;;2.43;;
1082;SDS011;530;51.448;7.238;2023-09-18T08:58:24;2.63;;;2.27;;
1082;SDS011;530;51.448;7.238;2023-09-18T09:00:51;4.37;;;2.10;;
1082;SDS011;530;51.448;7.238;2023-09-18T09:03:18;3.20;;;2.00;;
1082;SDS011;530;51.448;7.238;2023-09-18T09:05:44;3.50;;;2.10;;
1082;SDS011;530;51.448;7.238;2023-09-18T09:08:09;3.67;;;2.03;;
1082;SDS011;530;51.448;7.238;2023-09-18T09:10:35;4.43;;;2.20;;
1082;SDS011;530;51.448;7.238;2023-09-18T09:13:01;3.70;;;2.20;;
1082;SDS011;530;51.448;7.238;2023-09-18T09:15:28;4.87;;;2.10;;
1082;SDS011;530;51.448;7.238;2023-09-18T09:18:04;2.50;;;1.90;;
1082;SDS011;530;51.448;7.238;2023-09-18T09:20:31;3.23;;;2.00;;
1082;SDS011;530;51.448;7.238;2023-09-18T09:23:01;5.13;;;2.13;;
1082;SDS011;530;51.448;7.238;2023-09-18T09:25:28;2.60;;;1.90;;
1082;SDS011;530;51.448;7.238;2023-09-18T09:27:57;3.10;;;1.77;;
1082;SDS011;530;51.448;7.238;2023-09-18T09:30:24;3.47;;;1.90;;
1082;SDS011;530;51.448;7.238;2023-09-18T09:32:52;5.50;;;2.60;;
1082;SDS011;530;51.448;7.238;2023-09-18T09:35:29;3.60;;;2.00;;
1082;SDS011;530;51.448;7.238;2023-09-18T09:38:00;3.60;;;2.03;;
1082;SDS011;530;51.448;7.238;2023-09-18T09:40:27;3.50;;;1.83;;
1082;SDS011;530;51.448;7.238;2023-09-18T09:42:55;3.17;;;2.10;;
1082;SDS011;530;51.448;7.238;2023-09-18T09:45:29;3.53;;;1.60;;
1082;SDS011;530;51.448;7.238;2023-09-18T09:48:00;3.37;;;1.70;;
1082;SDS011;530;51.448;7.238;2023-09-18T09:50:27;3.60;;;1.73;;
1082;SDS011;530;51.448;7.238;2023-09-18T09:52:54;2.40;;;1.60;;
1082;SDS011;530;51.448;7.238;2023-09-18T09:55:28;2.10;;;1.50;;
1082;SDS011;530;51.448;7.238;2023-09-18T09:57:56;2.80;;;1.70;;
1082;SDS011;530;51.448;7.238;2023-09-18T10:00:33;3.97;;;1.80;;
1082;SDS011;530;51.448;7.238;2023-09-18T10:03:11;4.37;;;2.50;;
1082;SDS011;530;51.448;7.238;2023-09-18T10:05:40;3.00;;;1.60;;
1082;SDS011;530;51.448;7.238;2023-09-18T10:08:08;4.23;;;1.93;;
1082;SDS011;530;51.448;7.238;2023-09-18T10:10:36;2.70;;;1.63;;
1082;SDS011;530;51.448;7.238;2023-09-18T10:13:52;3.87;;;1.70;;
1082;SDS011;530;51.448;7.238;2023-09-18T10:15:56;3.10;;;2.20;;
1082;SDS011;530;51.448;7.238;2023-09-18T10:21:29;2.77;;;2.20;;
1082;SDS011;530;51.448;7.238;2023-09-18T10:27:00;3.17;;;2.20;;
1082;SDS011;530;51.448;7.238;2023-09-18T10:29:30;2.50;;;1.63;;
1082;SDS011;530;51.448;7.238;2023-09-18T10:31:58;1.67;;;1.53;;
1082;SDS011;530;51.448;7.238;2023-09-18T10:34:24;3.40;;;1.50;;
1082;SDS011;530;51.448;7.238;2023-09-18T10:36:51;6.00;;;1.80;;
1082;SDS011;530;51.448;7.238;2023-09-18T10:39:31;4.57;;;2.20;;
1082;SDS011;530;51.448;7.238;2023-09-18T10:42:00;4.70;;;1.50;;
1082;SDS011;530;51.448;7.238;2023-09-18T10:44:28;4.97;;;2.20;;
1082;SDS011;530;51.448;7.238;2023-09-18T10:46:56;3.23;;;1.80;;
1082;SDS011;530;51.448;7.238;2023-09-18T10:49:23;4.17;;;1.90;;
1082;SDS011;530;51.448;7.238;2023-09-18T10:51:53;1.70;;;1.60;;
1082;SDS011;530;51.448;7.238;2023-09-18T10:54:20;4.20;;;1.70;;
1082;SDS011;530;51.448;7.238;2023-09-18T10:56:48;3.37;;;1.70;;
1082;SDS011;530;51.448;7.238;2023-09-18T10:59:14;3.90;;;1.90;;
1082;SDS011;530;51.448;7.238;2023-09-18T11:01:41;3.93;;;1.90;;
1082;SDS011;530;51.448;7.238;2023-09-18T11:04:07;2.30;;;1.90;;
1082;SDS011;530;51.448;7.238;2023-09-18T11:09:32;3.83;;;2.33;;
1082;SDS011;530;51.448;7.238;2023-09-18T11:12:06;2.60;;;2.07;;
1082;SDS011;530;51.448;7.238;2023-09-18T11:14:41;2.30;;;1.83;;
1082;SDS011;530;51.448;7.238;2023-09-18T11:22:49;3.83;;;1.77;;
1082;SDS011;530;51.448;7.238;2023-09-18T11:28:14;3.43;;;2.00;;
1082;SDS011;530;51.448;7.238;2023-09-18T11:30:56;2.50;;;1.70;;
1082;SDS011;530;51.448;7.238;2023-09-18T11:33:30;2.60;;;2.03;;
1082;SDS011;530;51.448;7.238;2023-09-18T11:35:57;5.23;;;1.97;;
1082;SDS011;530;51.448;7.238;2023-09-18T11:38:28;1.97;;;1.37;;
1082;SDS011;530;51.448;7.238;2023-09-18T11:40:54;3.83;;;1.90;;
1082;SDS011;530;51.448;7.238;2023-09-18T11:45:53;6.33;;;2.10;;
1082;SDS011;530;51.448;7.238;2023-09-18T11:48:21;2.40;;;2.00;;
1082;SDS011;530;51.448;7.238;2023-09-18T11:50:49;5.60;;;2.20;;
1082;SDS011;530;51.448;7.238;2023-09-18T11:53:17;3.70;;;2.30;;
1082;SDS011;530;51.448;7.238;2023-09-18T11:55:44;5.77;;;1.93;;
1082;SDS011;530;51.448;7.238;2023-09-18T11:58:10;4.10;;;1.90;;
1082;SDS011;530;51.448;7.238;2023-09-18T12:00:36;2.97;;;1.97;;
1082;SDS011;530;51.448;7.238;2023-09-18T12:03:20;2.93;;;2.03;;
1082;SDS011;530;51.448;7.238;2023-09-18T12:06:00;4.10;;;1.80;;
1082;SDS011;530;51.448;7.238;2023-09-18T12:08:30;4.27;;;1.90;;
1082;SDS011;530;51.448;7.238;2023-09-18T12:10:56;2.60;;;1.93;;
1082;SDS011;530;51.448;7.238;2023-09-18T12:13:25;2.90;;;1.70;;
1082;SDS011;530;51.448;7.238;2023-09-18T12:18:25;1.90;;;1.60;;
1082;SDS011;530;51.448;7.238;2023-09-18T12:20:53;5.50;;;1.97;;
1082;SDS011;530;51.448;7.238;2023-09-18T12:23:21;2.40;;;1.53;;
1082;SDS011;530;51.448;7.238;2023-09-18T12:25:49;3.47;;;2.03;;
1082;SDS011;530;51.448;7.238;2023-09-18T12:28:21;3.90;;;1.73;;
1082;SDS011;530;51.448;7.238;2023-09-18T12:30:47;2.33;;;1.73;;
1082;SDS011;530;51.448;7.238;2023-09-18T12:33:15;3.47;;;2.00;;
1082;SDS011;530;51.448;7.238;2023-09-18T12:35:42;4.17;;;2.17;;
1082;SDS011;530;51.448;7.238;2023-09-18T12:38:17;4.30;;;1.80;;
1082;SDS011;530;51.448;7.238;2023-09-18T12:40:47;4.17;;;2.10;;
1082;SDS011;530;51.448;7.238;2023-09-18T12:43:14;2.70;;;1.60;;
1082;SDS011;530;51.448;7.238;2023-09-18T12:45:40;3.83;;;2.43;;
1082;SDS011;530;51.448;7.238;2023-09-18T12:48:07;3.67;;;2.30;;
1082;SDS011;530;51.448;7.238;2023-09-18T12:50:35;4.33;;;2.37;;
1082;SDS011;530;51.448;7.238;2023-09-18T12:53:10;4.40;;;1.80;;
1082;SDS011;530;51.448;7.238;2023-09-18T12:55:37;2.80;;;1.90;;
1082;SDS011;530;51.448;7.238;2023-09-18T12:58:05;3.73;;;1.87;;
1082;SDS011;530;51.448;7.238;2023-09-18T13:00:33;4.90;;;2.13;;
1082;SDS011;530;51.448;7.238;2023-09-18T13:03:00;2.70;;;2.20;;
1082;SDS011;530;51.448;7.238;2023-09-18T13:05:29;2.00;;;1.87;;
1082;SDS011;530;51.448;7.238;2023-09-18T13:08:00;3.20;;;2.20;;
1082;SDS011;530;51.448;7.238;2023-09-18T13:10:28;2.20;;;2.00;;
1082;SDS011;530;51.448;7.238;2023-09-18T13:12:53;3.80;;;2.20;;
1082;SDS011;530;51.448;7.238;2023-09-18T13:17:57;2.80;;;1.90;;
1082;SDS011;530;51.448;7.238;2023-09-18T13:20:25;2.17;;;1.70;;
1082;SDS011;530;51.448;7.238;2023-09-18T13:22:54;3.33;;;1.83;;
1082;SDS011;530;51.448;7.238;2023-09-18T13:25:21;4.33;;;2.53;;
1082;SDS011;530;51.448;7.238;2023-09-18T13:27:49;2.97;;;2.07;;
1082;SDS011;530;51.448;7.238;2023-09-18T13:30:16;2.10;;;1.90;;
1082;SDS011;530;51.448;7.238;2023-09-18T13:32:46;3.97;;;2.07;;
1082;SDS011;530;51.448;7.238;2023-09-18T13:35:15;2.90;;;2.07;;
1082;SDS011;530;51.448;7.238;2023-09-18T13:37:42;2.90;;;2.13;;
1082;SDS011;530;51.448;7.238;2023-09-18T13:40:09;2.90;;;2.10;;
1082;SDS011;530;51.448;7.238;2023-09-18T13:42:36;3.87;;;2.10;;
1082;SDS011;530;51.448;7.238;2023-09-18T13:45:05;3.43;;;2.20;;
1082;SDS011;530;51.448;7.238;2023-09-18T13:47:31;3.40;;;2.00;;
1082;SDS011;530;51.448;7.238;2023-09-18T13:50:02;3.23;;;2.20;;
1082;SDS011;530;51.448;7.238;2023-09-18T13:52:30;2.10;;;1.70;;
1082;SDS011;530;51.448;7.238;2023-09-18T13:54:57;2.10;;;1.70;;
1082;SDS011;530;51.448;7.238;2023-09-18T13:57:23;3.13;;;2.00;;
1082;SDS011;530;51.448;7.238;2023-09-18T13:59:49;2.30;;;2.10;;
1082;SDS011;530;51.448;7.238;2023-09-18T14:02:15;2.20;;;1.87;;
1082;SDS011;530;51.448;7.238;2023-09-18T14:04:42;3.43;;;2.00;;
1082;SDS011;530;51.448;7.238;2023-09-18T14:07:09;2.77;;;1.70;;
1082;SDS011;530;51.448;7.238;2023-09-18T14:09:36;3.63;;;2.00;;
1082;SDS011;530;51.448;7.238;2023-09-18T14:12:02;1.83;;;1.73;;
1082;SDS011;530;51.448;7.238;2023-09-18T14:14:28;3.53;;;2.43;;
1082;SDS011;530;51.448;7.238;2023-09-18T14:16:54;3.93;;;2.40;;
1082;SDS011;530;51.448;7.238;2023-09-18T14:19:20;2.70;;;2.13;;
1082;SDS011;530;51.448;7.238;2023-09-18T14:21:46;4.60;;;2.20;;
1082;SDS011;530;51.448;7.238;2023-09-18T14:24:14;2.17;;;1.60;;
1082;SDS011;530;51.448;7.238;2023-09-18T14:26:43;3.80;;;1.70;;
1082;SDS011;530;51.448;7.238;2023-09-18T14:29:09;4.50;;;2.40;;
1082;SDS011;530;51.448;7.238;2023-09-18T14:31:36;3.20;;;1.60;;
1082;SDS011;530;51.448;7.238;2023-09-18T14:34:02;2.60;;;2.23;;
1082;SDS011;530;51.448;7.238;2023-09-18T14:36:29;4.60;;;1.80;;
1082;SDS011;530;51.448;7.238;2023-09-18T14:38:55;2.10;;;1.57;;
1082;SDS011;530;51.448;7.238;2023-09-18T14:41:22;2.53;;;1.90;;
1082;SDS011;530;51.448;7.238;2023-09-18T14:43:50;2.50;;;2.03;;
1082;SDS011;530;51.448;7.238;2023-09-18T14:46:16;1.80;;;1.40;;
1082;SDS011;530;51.448;7.238;2023-09-18T14:48:42;4.00;;;2.07;;
1082;SDS011;530;51.448;7.238;2023-09-18T14:51:08;2.90;;;1.70;;
1082;SDS011;530;51.448;7.238;2023-09-18T14:53:33;4.90;;;1.77;;
1082;SDS011;530;51.448;7.238;2023-09-18T14:55:59;5.37;;;2.50;;
1082;SDS011;530;51.448;7.238;2023-09-18T14:58:25;5.03;;;2.60;;
1082;SDS011;530;51.448;7.238;2023-09-18T15:00:51;3.10;;;1.93;;
1082;SDS011;530;51.448;7.238;2023-09-18T15:03:18;2.87;;;1.33;;
1082;SDS011;530;51.448;7.238;2023-09-18T15:05:44;5.70;;;2.20;;
1082;SDS011;530;51.448;7.238;2023-09-18T15:08:10;2.60;;;2.20;;
1082;SDS011;530;51.448;7.238;2023-09-18T15:10:36;3.53;;;1.70;;
1082;SDS011;530;51.448;7.238;2023-09-18T15:13:02;2.37;;;2.10;;
1082;SDS011;530;51.448;7.238;2023-09-18T15:15:28;2.33;;;2.10;;
1082;SDS011;530;51.448;7.238;2023-09-18T15:17:54;2.27;;;1.50;;
1082;SDS011;530;51.448;7.238;2023-09-18T15:20:20;2.00;;;1.80;;
1082;SDS011;530;51.448;7.238;2023-09-18T15:22:49;2.27;;;1.70;;
1082;SDS011;530;51.448;7.238;2023-09-18T15:25:15;2.63;;;1.77;;
1082;SDS011;530;51.448;7.238;2023-09-18T15:27:41;1.80;;;1.70;;
1082;SDS011;530;51.448;7.238;2023-09-18T15:30:07;2.13;;;1.60;;
1082;SDS011;530;51.448;7.238;2023-09-18T15:32:50;3.03;;;1.70;;
1082;SDS011;530;51.448;7.238;2023-09-18T15:35:27;2.73;;;1.67;;
1082;SDS011;530;51.448;7.238;2023-09-18T15:37:53;2.17;;;1.60;;
1082;SDS011;530;51.448;7.238;2023-09-18T15:40:20;1.97;;;1.77;;
1082;SDS011;530;51.448;7.238;2023-09-18T15:42:50;5.67;;;1.40;;
1082;SDS011;530;51.448;7.238;2023-09-18T15:45:16;5.53;;;2.40;;
1082;SDS011;530;51.448;7.238;2023-09-18T15:47:42;2.30;;;1.90;;
1082;SDS011;530;51.448;7.238;2023-09-18T15:50:09;2.40;;;1.63;;
1082;SDS011;530;51.448;7.238;2023-09-18T15:52:37;2.40;;;1.90;;
1082;SDS011;530;51.448;7.238;2023-09-18T15:55:03;3.13;;;1.50;;
1082;SDS011;530;51.448;7.238;2023-09-18T15:57:33;1.60;;;1.50;;